sensor_id;sensor_type;location;lat;lon;timestamp;pressure;altitude;pressure_sealevel;temperature;humidity
56330;BME280;42236;48.058;10.632;2023-04-29T00:02:05;94453.91;;;10.80;100.00
56330;BME280;42236;48.058;10.632;2023-04-29T00:04:51;94453.91;;;10.80;100.00
56330;BME280;42236;48.058;10.632;2023-04-29T00:07:37;94447.66;;;10.76;100.00
56330;BME280;42236;48.058;10.632;2023-04-29T00:10:23;94446.44;;;10.73;100.00
56330;BME280;42236;48.058;10.632;2023-04-29T00:13:08;94444.84;;;10.72;100.00
56330;BME280;42236;48.058;10.632;2023-04-29T00:15:54;94447.91;;;10.71;100.00
56330;BME280;42236;48.058;10.632;2023-04-29T00:18:40;94453.72;;;10.73;100.00
56330;BME280;42236;48.058;10.632;2023-04-29T00:21:26;94451.00;;;10.73;100.00
56330;BME280;42236;48.058;10.632;2023-04-29T00:24:11;94452.16;;;10.72;100.00
56330;BME280;42236;48.058;10.632;2023-04-29T00:26:57;94444.84;;;10.72;100.00
56330;BME280;42236;48.058;10.632;2023-04-29T00:29:44;94446.75;;;10.72;100.00
56330;BME280;42236;48.058;10.632;2023-04-29T00:32:29;94445.97;;;10.71;100.00
56330;BME280;42236;48.058;10.632;2023-04-29T00:35:15;94448.69;;;10.71;100.00
56330;BME280;42236;48.058;10.632;2023-04-29T00:38:01;94443.63;;;10.70;100.00
56330;BME280;42236;48.058;10.632;2023-04-29T00:40:47;94450.16;;;10.68;100.00
56330;BME280;42236;48.058;10.632;2023-04-29T00:43:32;94452.06;;;10.68;100.00
56330;BME280;42236;48.058;10.632;2023-04-29T00:46:18;94447.00;;;10.66;100.00
56330;BME280;42236;48.058;10.632;2023-04-29T00:49:04;94444.31;;;10.66;100.00
56330;BME280;42236;48.058;10.632;2023-04-29T00:51:50;94445.09;;;10.67;100.00
56330;BME280;42236;48.058;10.632;2023-04-29T00:54:36;94442.72;;;10.65;100.00
56330;BME280;42236;48.058;10.632;2023-04-29T00:57:23;94445.78;;;10.64;100.00
56330;BME280;42236;48.058;10.632;2023-04-29T01:00:09;94451.19;;;10.64;100.00
56330;BME280;42236;48.058;10.632;2023-04-29T01:02:55;94449.25;;;10.64;100.00
56330;BME280;42236;48.058;10.632;2023-04-29T01:05:44;94448.94;;;10.66;100.00
56330;BME280;42236;48.058;10.632;2023-04-29T01:09:02;94453.31;;;10.71;100.00
56330;BME280;42236;48.058;10.632;2023-04-29T01:15:04;94451.91;;;10.77;100.00
56330;BME280;42236;48.058;10.632;2023-04-29T01:20:58;94450.09;;;10.81;100.00
56330;BME280;42236;48.058;10.632;2023-04-29T01:23:44;94449.38;;;10.84;100.00
56330;BME280;42236;48.058;10.632;2023-04-29T01:26:31;94452.09;;;10.84;100.00
56330;BME280;42236;48.058;10.632;2023-04-29T01:29:34;94450.97;;;10.85;100.00
56330;BME280;42236;48.058;10.632;2023-04-29T01:35:29;94454.09;;;10.87;100.00
56330;BME280;42236;48.058;10.632;2023-04-29T01:38:25;94461.06;;;10.88;100.00
56330;BME280;42236;48.058;10.632;2023-04-29T01:41:18;94448.47;;;10.92;100.00
56330;BME280;42236;48.058;10.632;2023-04-29T01:44:14;94443.91;;;10.96;100.00
56330;BME280;42236;48.058;10.632;2023-04-29T01:47:01;94442.88;;;11.01;100.00
56330;BME280;42236;48.058;10.632;2023-04-29T01:49:48;94442.97;;;11.04;100.00
56330;BME280;42236;48.058;10.632;2023-04-29T01:52:34;94450.38;;;11.07;100.00
56330;BME280;42236;48.058;10.632;2023-04-29T01:55:21;94441.50;;;11.07;100.00
56330;BME280;42236;48.058;10.632;2023-04-29T01:58:07;94446.09;;;11.06;100.00
56330;BME280;42236;48.058;10.632;2023-04-29T02:00:53;94439.56;;;11.07;100.00
56330;BME280;42236;48.058;10.632;2023-04-29T02:03:39;94439.56;;;11.07;100.00
56330;BME280;42236;48.058;10.632;2023-04-29T02:06:25;94433.75;;;11.05;100.00
56330;BME280;42236;48.058;10.632;2023-04-29T02:09:12;94446.34;;;11.01;100.00
56330;BME280;42236;48.058;10.632;2023-04-29T02:11:58;94436.25;;;10.98;100.00
56330;BME280;42236;48.058;10.632;2023-04-29T02:14:43;94443.91;;;10.96;100.00
56330;BME280;42236;48.058;10.632;2023-04-29T02:17:29;94441.91;;;10.93;100.00
56330;BME280;42236;48.058;10.632;2023-04-29T02:20:15;94438.00;;;10.91;100.00
56330;BME280;42236;48.058;10.632;2023-04-29T02:23:01;94438.00;;;10.91;100.00
56330;BME280;42236;48.058;10.632;2023-04-29T02:25:46;94445.75;;;10.92;100.00
56330;BME280;42236;48.058;10.632;2023-04-29T02:28:32;94443.84;;;10.93;100.00
56330;BME280;42236;48.058;10.632;2023-04-29T02:31:19;94446.53;;;10.93;100.00
56330;BME280;42236;48.058;10.632;2023-04-29T02:34:05;94443.91;;;10.96;100.00
56330;BME280;42236;48.058;10.632;2023-04-29T02:36:50;94445.91;;;10.99;100.00
56330;BME280;42236;48.058;10.632;2023-04-29T02:39:39;94445.91;;;10.99;100.00
56330;BME280;42236;48.058;10.632;2023-04-29T02:42:25;94450.53;;;10.99;100.00
56330;BME280;42236;48.058;10.632;2023-04-29T02:45:11;94446.34;;;11.01;100.00
56330;BME280;42236;48.058;10.632;2023-04-29T02:47:56;94446.72;;;11.00;100.00
56330;BME280;42236;48.058;10.632;2023-04-29T02:50:42;94446.72;;;11.00;100.00
56330;BME280;42236;48.058;10.632;2023-04-29T02:53:28;94450.63;;;11.02;100.00
56330;BME280;42236;48.058;10.632;2023-04-29T02:56:14;94455.25;;;11.02;100.00
56330;BME280;42236;48.058;10.632;2023-04-29T02:58:59;94445.91;;;10.99;100.00
56330;BME280;42236;48.058;10.632;2023-04-29T03:01:45;94453.59;;;10.97;100.00
56330;BME280;42236;48.058;10.632;2023-04-29T03:04:32;94456.56;;;10.92;100.00
56330;BME280;42236;48.058;10.632;2023-04-29T03:07:18;94454.53;;;10.89;100.00
56330;BME280;42236;48.058;10.632;2023-04-29T03:10:04;94460.19;;;10.84;100.00
56330;BME280;42236;48.058;10.632;2023-04-29T03:12:50;94461.75;;;10.85;100.00
56330;BME280;42236;48.058;10.632;2023-04-29T03:15:36;94456.78;;;10.87;100.00
56330;BME280;42236;48.058;10.632;2023-04-29T03:18:21;94449.91;;;10.89;100.00
56330;BME280;42236;48.058;10.632;2023-04-29T03:21:07;94445.75;;;10.92;100.00
56330;BME280;42236;48.058;10.632;2023-04-29T03:23:53;94450.47;;;10.95;100.00
56330;BME280;42236;48.058;10.632;2023-04-29T03:26:39;94448.19;;;10.97;100.00
56330;BME280;42236;48.058;10.632;2023-04-29T03:29:25;94465.25;;;11.01;100.00
56330;BME280;42236;48.058;10.632;2023-04-29T03:32:11;94454.44;;;11.01;100.00
56330;BME280;42236;48.058;10.632;2023-04-29T03:34:57;94445.13;;;10.99;100.00
56330;BME280;42236;48.058;10.632;2023-04-29T03:37:43;94444.34;;;10.98;100.00
56330;BME280;42236;48.058;10.632;2023-04-29T03:40:28;94449.06;;;11.01;100.00
56330;BME280;42236;48.058;10.632;2023-04-29T03:43:14;94448.38;;;11.04;100.00
56330;BME280;42236;48.058;10.632;2023-04-29T03:46:00;94450.72;;;11.06;100.00
56330;BME280;42236;48.058;10.632;2023-04-29T03:48:46;94449.94;;;11.05;100.00
56330;BME280;42236;48.058;10.632;2023-04-29T03:51:31;94447.69;;;11.07;100.00
56330;BME280;42236;48.058;10.632;2023-04-29T03:54:17;94449.66;;;11.10;100.00
56330;BME280;42236;48.058;10.632;2023-04-29T03:57:03;94446.97;;;11.10;100.00
56330;BME280;42236;48.058;10.632;2023-04-29T03:59:49;94446.28;;;11.14;100.00
56330;BME280;42236;48.058;10.632;2023-04-29T04:02:34;94452.53;;;11.18;100.00
56330;BME280;42236;48.058;10.632;2023-04-29T04:05:20;94450.28;;;11.20;100.00
56330;BME280;42236;48.058;10.632;2023-04-29T04:08:09;94451.84;;;11.21;100.00
56330;BME280;42236;48.058;10.632;2023-04-29T04:10:55;94461.97;;;11.24;100.00
56330;BME280;42236;48.058;10.632;2023-04-29T04:13:47;94469.81;;;11.29;100.00
56330;BME280;42236;48.058;10.632;2023-04-29T04:16:34;94463.63;;;11.28;100.00
56330;BME280;42236;48.058;10.632;2023-04-29T04:19:19;94465.97;;;11.30;100.00
56330;BME280;42236;48.058;10.632;2023-04-29T04:22:05;94472.13;;;11.30;100.00
56330;BME280;42236;48.058;10.632;2023-04-29T04:24:55;94463.25;;;11.30;100.00
56330;BME280;42236;48.058;10.632;2023-04-29T04:27:40;94468.22;;;11.28;100.00
56330;BME280;42236;48.058;10.632;2023-04-29T04:30:26;94471.34;;;11.30;100.00
56330;BME280;42236;48.058;10.632;2023-04-29T04:33:12;94474.50;;;11.32;100.00
56330;BME280;42236;48.058;10.632;2023-04-29T04:35:57;94479.56;;;11.34;100.00
56330;BME280;42236;48.058;10.632;2023-04-29T04:38:43;94473.47;;;11.37;100.00
56330;BME280;42236;48.058;10.632;2023-04-29T04:41:28;94472.75;;;11.40;100.00
56330;BME280;42236;48.058;10.632;2023-04-29T04:44:16;94475.56;;;11.43;100.00
56330;BME280;42236;48.058;10.632;2023-04-29T04:47:02;94479.91;;;11.48;100.00
56330;BME280;42236;48.058;10.632;2023-04-29T04:49:48;94475.34;;;11.52;100.00
56330;BME280;42236;48.058;10.632;2023-04-29T04:52:37;94478.16;;;11.56;100.00
56330;BME280;42236;48.058;10.632;2023-04-29T04:55:23;94477.44;;;11.59;100.00
56330;BME280;42236;48.058;10.632;2023-04-29T04:58:08;94483.03;;;11.66;100.00
56330;BME280;42236;48.058;10.632;2023-04-29T05:00:54;94479.44;;;11.78;100.00
56330;BME280;42236;48.058;10.632;2023-04-29T05:03:40;94481.72;;;11.91;100.00
56330;BME280;42236;48.058;10.632;2023-04-29T05:06:26;94480.94;;;12.10;100.00
56330;BME280;42236;48.058;10.632;2023-04-29T05:09:11;94478.91;;;12.23;100.00
56330;BME280;42236;48.058;10.632;2023-04-29T05:11:57;94484.47;;;12.30;100.00
56330;BME280;42236;48.058;10.632;2023-04-29T05:14:43;94488.59;;;12.44;100.00
56330;BME280;42236;48.058;10.632;2023-04-29T05:17:29;94496.94;;;12.54;100.00
56330;BME280;42236;48.058;10.632;2023-04-29T05:20:15;94499.66;;;12.54;100.00
56330;BME280;42236;48.058;10.632;2023-04-29T05:23:01;94499.94;;;12.49;100.00
56330;BME280;42236;48.058;10.632;2023-04-29T05:25:47;94498.72;;;12.47;100.00
56330;BME280;42236;48.058;10.632;2023-04-29T05:28:33;94498.84;;;12.54;100.00
56330;BME280;42236;48.058;10.632;2023-04-29T05:31:19;94508.81;;;12.69;100.00
56330;BME280;42236;48.058;10.632;2023-04-29T05:34:05;94516.16;;;12.88;100.00
56330;BME280;42236;48.058;10.632;2023-04-29T05:36:51;94523.97;;;13.13;100.00
56330;BME280;42236;48.058;10.632;2023-04-29T05:39:37;94520.88;;;13.34;100.00
56330;BME280;42236;48.058;10.632;2023-04-29T05:42:23;94519.25;;;13.52;100.00
56330;BME280;42236;48.058;10.632;2023-04-29T05:45:09;94517.25;;;13.72;100.00
56330;BME280;42236;48.058;10.632;2023-04-29T05:48:01;94519.06;;;13.87;100.00
56330;BME280;42236;48.058;10.632;2023-04-29T05:50:46;94524.84;;;14.13;100.00
56330;BME280;42236;48.058;10.632;2023-04-29T05:53:33;94514.19;;;14.54;100.00
56330;BME280;42236;48.058;10.632;2023-04-29T05:56:20;94519.97;;;14.82;100.00
56330;BME280;42236;48.058;10.632;2023-04-29T05:59:07;94533.78;;;15.04;100.00
56330;BME280;42236;48.058;10.632;2023-04-29T06:02:00;94532.53;;;15.31;100.00
56330;BME280;42236;48.058;10.632;2023-04-29T06:05:21;94531.72;;;15.68;99.83
56330;BME280;42236;48.058;10.632;2023-04-29T06:08:07;94528.81;;;15.88;100.00
56330;BME280;42236;48.058;10.632;2023-04-29T06:10:53;94531.72;;;15.68;100.00
56330;BME280;42236;48.058;10.632;2023-04-29T06:13:39;94534.53;;;15.34;100.00
56330;BME280;42236;48.058;10.632;2023-04-29T06:16:25;94525.97;;;14.99;99.83
56330;BME280;42236;48.058;10.632;2023-04-29T06:19:40;94543.38;;;14.60;99.09
56330;BME280;42236;48.058;10.632;2023-04-29T06:22:26;94532.03;;;14.85;100.00
56330;BME280;42236;48.058;10.632;2023-04-29T06:25:12;94540.94;;;15.19;100.00
56330;BME280;42236;48.058;10.632;2023-04-29T06:27:58;94548.19;;;15.42;100.00
56330;BME280;42236;48.058;10.632;2023-04-29T06:30:44;94545.97;;;15.54;99.74
56330;BME280;42236;48.058;10.632;2023-04-29T06:33:31;94540.09;;;15.49;99.30
56330;BME280;42236;48.058;10.632;2023-04-29T06:36:18;94533.06;;;15.44;98.18
56330;BME280;42236;48.058;10.632;2023-04-29T06:39:13;94541.13;;;15.37;97.26
56330;BME280;42236;48.058;10.632;2023-04-29T06:41:59;94545.00;;;15.36;97.82
56330;BME280;42236;48.058;10.632;2023-04-29T06:44:45;94543.25;;;15.17;97.25
56330;BME280;42236;48.058;10.632;2023-04-29T06:47:30;94552.38;;;14.98;97.78
56330;BME280;42236;48.058;10.632;2023-04-29T06:50:17;94548.94;;;15.05;97.45
56330;BME280;42236;48.058;10.632;2023-04-29T06:53:03;94548.50;;;15.03;96.30
56330;BME280;42236;48.058;10.632;2023-04-29T06:55:49;94545.28;;;14.90;96.69
56330;BME280;42236;48.058;10.632;2023-04-29T06:58:35;94549.69;;;15.02;96.49
56330;BME280;42236;48.058;10.632;2023-04-29T07:01:21;94546.78;;;14.87;95.64
56330;BME280;42236;48.058;10.632;2023-04-29T07:04:07;94545.97;;;14.83;96.01
56330;BME280;42236;48.058;10.632;2023-04-29T07:06:53;94558.00;;;14.82;96.45
56330;BME280;42236;48.058;10.632;2023-04-29T07:09:40;94561.03;;;14.77;96.31
56330;BME280;42236;48.058;10.632;2023-04-29T07:12:26;94559.75;;;14.67;95.58
56330;BME280;42236;48.058;10.632;2023-04-29T07:15:12;94570.69;;;14.75;95.86
56330;BME280;42236;48.058;10.632;2023-04-29T07:17:57;94568.09;;;14.85;95.52
56330;BME280;42236;48.058;10.632;2023-04-29T07:20:43;94564.78;;;14.99;94.90
56330;BME280;42236;48.058;10.632;2023-04-29T07:23:30;94566.16;;;15.16;94.59
56330;BME280;42236;48.058;10.632;2023-04-29T07:26:29;94567.94;;;15.01;92.71
56330;BME280;42236;48.058;10.632;2023-04-29T07:29:15;94564.28;;;14.90;93.04
56330;BME280;42236;48.058;10.632;2023-04-29T07:32:01;94565.31;;;14.78;93.75
56330;BME280;42236;48.058;10.632;2023-04-29T07:34:46;94558.34;;;14.81;94.28
56330;BME280;42236;48.058;10.632;2023-04-29T07:37:32;94559.72;;;14.98;94.18
56330;BME280;42236;48.058;10.632;2023-04-29T07:40:18;94558.50;;;15.25;92.74
56330;BME280;42236;48.058;10.632;2023-04-29T07:43:10;94549.03;;;15.49;91.31
56330;BME280;42236;48.058;10.632;2023-04-29T07:45:56;94558.44;;;15.59;91.46
56330;BME280;42236;48.058;10.632;2023-04-29T07:48:42;94566.25;;;15.64;90.87
56330;BME280;42236;48.058;10.632;2023-04-29T07:51:31;94562.97;;;15.44;91.20
56330;BME280;42236;48.058;10.632;2023-04-29T07:54:17;94564.34;;;15.27;91.81
56330;BME280;42236;48.058;10.632;2023-04-29T07:57:04;94561.06;;;15.14;91.31
56330;BME280;42236;48.058;10.632;2023-04-29T07:59:51;94563.25;;;15.02;90.75
56330;BME280;42236;48.058;10.632;2023-04-29T08:02:37;94555.22;;;15.12;91.07
56330;BME280;42236;48.058;10.632;2023-04-29T08:05:23;94566.59;;;15.22;90.65
56330;BME280;42236;48.058;10.632;2023-04-29T08:08:15;94563.16;;;15.25;90.88
56330;BME280;42236;48.058;10.632;2023-04-29T08:11:01;94566.56;;;15.18;89.43
56330;BME280;42236;48.058;10.632;2023-04-29T08:13:47;94563.94;;;15.25;89.88
56330;BME280;42236;48.058;10.632;2023-04-29T08:16:33;94557.25;;;15.56;89.82
56330;BME280;42236;48.058;10.632;2023-04-29T08:19:18;94563.28;;;15.73;88.55
56330;BME280;42236;48.058;10.632;2023-04-29T08:25:02;94569.09;;;15.38;87.44
56330;BME280;42236;48.058;10.632;2023-04-29T08:27:49;94566.50;;;15.14;88.15
56330;BME280;42236;48.058;10.632;2023-04-29T08:30:39;94575.56;;;14.92;89.15
56330;BME280;42236;48.058;10.632;2023-04-29T08:33:44;94577.16;;;14.66;87.75
56330;BME280;42236;48.058;10.632;2023-04-29T08:36:33;94579.66;;;14.52;87.96
56330;BME280;42236;48.058;10.632;2023-04-29T08:39:18;94577.13;;;14.36;88.49
56330;BME280;42236;48.058;10.632;2023-04-29T08:42:09;94583.09;;;14.45;88.94
56330;BME280;42236;48.058;10.632;2023-04-29T08:44:56;94578.38;;;14.69;89.30
56330;BME280;42236;48.058;10.632;2023-04-29T08:47:44;94579.66;;;15.09;89.03
56330;BME280;42236;48.058;10.632;2023-04-29T08:53:29;94572.63;;;15.75;87.28
56330;BME280;42236;48.058;10.632;2023-04-29T08:56:16;94578.84;;;15.76;83.28
56330;BME280;42236;48.058;10.632;2023-04-29T08:59:06;94576.91;;;15.80;83.60
56330;BME280;42236;48.058;10.632;2023-04-29T09:01:54;94572.09;;;16.07;83.92
56330;BME280;42236;48.058;10.632;2023-04-29T09:08:40;94571.72;;;16.68;81.52
56330;BME280;42236;48.058;10.632;2023-04-29T09:12:04;94575.06;;;17.09;78.64
56330;BME280;42236;48.058;10.632;2023-04-29T09:15:03;94563.06;;;17.35;77.60
56330;BME280;42236;48.058;10.632;2023-04-29T09:17:49;94553.25;;;17.13;78.61
56330;BME280;42236;48.058;10.632;2023-04-29T09:21:28;94557.47;;;16.96;77.92
56330;BME280;42236;48.058;10.632;2023-04-29T09:25:12;94567.72;;;17.35;76.86
56330;BME280;42236;48.058;10.632;2023-04-29T09:31:50;94566.78;;;16.25;76.70
56330;BME280;42236;48.058;10.632;2023-04-29T09:34:40;94560.81;;;16.05;77.27
56330;BME280;42236;48.058;10.632;2023-04-29T09:37:26;94552.53;;;15.91;77.78
56330;BME280;42236;48.058;10.632;2023-04-29T09:40:32;94561.31;;;15.73;77.81
56330;BME280;42236;48.058;10.632;2023-04-29T09:43:18;94554.84;;;15.89;79.24
56330;BME280;42236;48.058;10.632;2023-04-29T09:46:13;94555.06;;;16.17;78.17
56330;BME280;42236;48.058;10.632;2023-04-29T09:49:25;94546.59;;;16.30;73.67
56330;BME280;42236;48.058;10.632;2023-04-29T09:52:12;94552.91;;;16.41;75.88
56330;BME280;42236;48.058;10.632;2023-04-29T09:55:04;94549.06;;;16.53;75.35
56330;BME280;42236;48.058;10.632;2023-04-29T09:57:53;94554.91;;;16.55;75.43
56330;BME280;42236;48.058;10.632;2023-04-29T10:00:39;94556.72;;;16.33;76.09
56330;BME280;42236;48.058;10.632;2023-04-29T10:07:16;94566.47;;;15.86;76.17
56330;BME280;42236;48.058;10.632;2023-04-29T10:10:23;94566.00;;;15.76;77.43
56330;BME280;42236;48.058;10.632;2023-04-29T10:13:19;94560.19;;;15.78;77.31
56330;BME280;42236;48.058;10.632;2023-04-29T10:19:56;94564.91;;;15.85;78.84
56330;BME280;42236;48.058;10.632;2023-04-29T10:22:49;94565.66;;;15.82;77.25
56330;BME280;42236;48.058;10.632;2023-04-29T10:25:43;94566.44;;;15.82;77.83
56330;BME280;42236;48.058;10.632;2023-04-29T10:28:30;94563.00;;;15.85;76.49
56330;BME280;42236;48.058;10.632;2023-04-29T10:31:18;94563.72;;;15.82;76.67
56330;BME280;42236;48.058;10.632;2023-04-29T10:34:06;94562.25;;;15.92;76.45
56330;BME280;42236;48.058;10.632;2023-04-29T10:37:00;94556.59;;;16.15;75.14
56330;BME280;42236;48.058;10.632;2023-04-29T10:46:33;94563.66;;;16.23;73.75
56330;BME280;42236;48.058;10.632;2023-04-29T10:49:20;94563.19;;;16.10;72.86
56330;BME280;42236;48.058;10.632;2023-04-29T10:52:06;94560.69;;;15.94;71.63
56330;BME280;42236;48.058;10.632;2023-04-29T10:55:02;94559.28;;;16.08;71.78
56330;BME280;42236;48.058;10.632;2023-04-29T10:57:52;94550.78;;;16.16;72.17
56330;BME280;42236;48.058;10.632;2023-04-29T11:01:02;94549.75;;;16.39;71.97
56330;BME280;42236;48.058;10.632;2023-04-29T11:03:53;94542.91;;;16.67;70.76
56330;BME280;42236;48.058;10.632;2023-04-29T11:06:52;94547.81;;;16.36;67.53
56330;BME280;42236;48.058;10.632;2023-04-29T11:09:39;94545.34;;;16.16;69.66
56330;BME280;42236;48.058;10.632;2023-04-29T11:12:25;94551.16;;;16.15;67.49
56330;BME280;42236;48.058;10.632;2023-04-29T11:15:16;94556.69;;;16.29;67.22
56330;BME280;42236;48.058;10.632;2023-04-29T11:18:02;94552.22;;;16.58;68.66
56330;BME280;42236;48.058;10.632;2023-04-29T11:24:34;94562.56;;;17.04;68.91
56330;BME280;42236;48.058;10.632;2023-04-29T11:27:37;94555.19;;;17.09;66.02
56330;BME280;42236;48.058;10.632;2023-04-29T11:30:35;94563.28;;;16.87;64.54
56330;BME280;42236;48.058;10.632;2023-04-29T11:33:30;94557.81;;;16.80;64.64
56330;BME280;42236;48.058;10.632;2023-04-29T11:36:26;94554.75;;;16.92;65.99
56330;BME280;42236;48.058;10.632;2023-04-29T11:39:18;94555.50;;;16.93;61.45
56330;BME280;42236;48.058;10.632;2023-04-29T11:42:21;94553.16;;;16.88;61.76
56330;BME280;42236;48.058;10.632;2023-04-29T11:52:14;94547.09;;;17.30;63.23
56330;BME280;42236;48.058;10.632;2023-04-29T11:55:01;94552.91;;;17.28;63.26
56330;BME280;42236;48.058;10.632;2023-04-29T11:57:48;94543.91;;;17.10;61.68
56330;BME280;42236;48.058;10.632;2023-04-29T12:04:12;94550.56;;;17.23;62.38
56330;BME280;42236;48.058;10.632;2023-04-29T12:06:58;94551.34;;;17.27;62.36
56330;BME280;42236;48.058;10.632;2023-04-29T12:09:47;94549.41;;;17.28;63.43
56330;BME280;42236;48.058;10.632;2023-04-29T12:12:33;94556.44;;;17.36;63.34
56330;BME280;42236;48.058;10.632;2023-04-29T12:15:32;94559.56;;;17.49;62.14
56330;BME280;42236;48.058;10.632;2023-04-29T12:18:19;94554.94;;;17.57;61.28
56330;BME280;42236;48.058;10.632;2023-04-29T12:21:15;94557.25;;;17.58;61.24
56330;BME280;42236;48.058;10.632;2023-04-29T12:24:34;94559.59;;;17.45;59.61
56330;BME280;42236;48.058;10.632;2023-04-29T12:30:33;94556.13;;;17.74;59.79
56330;BME280;42236;48.058;10.632;2023-04-29T12:33:33;94542.91;;;17.90;58.14
56330;BME280;42236;48.058;10.632;2023-04-29T12:40:00;94547.19;;;17.87;57.52
56330;BME280;42236;48.058;10.632;2023-04-29T12:46:24;94554.59;;;17.76;55.83
56330;BME280;42236;48.058;10.632;2023-04-29T13:00:34;94552.59;;;17.66;57.62
56330;BME280;42236;48.058;10.632;2023-04-29T13:04:02;94544.41;;;17.73;58.54
56330;BME280;42236;48.058;10.632;2023-04-29T13:06:56;94554.97;;;17.85;56.51
56330;BME280;42236;48.058;10.632;2023-04-29T13:09:57;94555.78;;;18.11;57.00
56330;BME280;42236;48.058;10.632;2023-04-29T13:20:23;94552.66;;;17.95;55.94
56330;BME280;42236;48.058;10.632;2023-04-29T13:23:12;94554.59;;;18.05;56.96
56330;BME280;42236;48.058;10.632;2023-04-29T13:29:42;94545.63;;;18.37;56.45
56330;BME280;42236;48.058;10.632;2023-04-29T13:32:28;94547.97;;;18.24;56.41
56330;BME280;42236;48.058;10.632;2023-04-29T13:35:20;94544.09;;;18.10;55.62
56330;BME280;42236;48.058;10.632;2023-04-29T13:38:25;94552.25;;;18.07;55.22
56330;BME280;42236;48.058;10.632;2023-04-29T13:44:48;94544.06;;;17.92;55.76
56330;BME280;42236;48.058;10.632;2023-04-29T13:47:53;94552.66;;;17.95;55.90
56330;BME280;42236;48.058;10.632;2023-04-29T13:57:52;94560.44;;;18.14;56.75
56330;BME280;42236;48.058;10.632;2023-04-29T14:04:27;94563.59;;;18.27;53.90
56330;BME280;42236;48.058;10.632;2023-04-29T14:15:30;94569.44;;;18.00;53.91
56330;BME280;42236;48.058;10.632;2023-04-29T14:18:51;94568.25;;;18.01;53.28
56330;BME280;42236;48.058;10.632;2023-04-29T14:21:45;94570.59;;;17.88;54.30
56330;BME280;42236;48.058;10.632;2023-04-29T14:24:59;94572.16;;;17.86;52.78
56330;BME280;42236;48.058;10.632;2023-04-29T14:27:45;94579.56;;;17.89;54.54
56330;BME280;42236;48.058;10.632;2023-04-29T14:30:49;94579.91;;;17.69;53.24
56330;BME280;42236;48.058;10.632;2023-04-29T14:41:13;94577.59;;;17.89;54.58
56330;BME280;42236;48.058;10.632;2023-04-29T14:43:59;94581.13;;;17.94;54.71
56330;BME280;42236;48.058;10.632;2023-04-29T14:46:54;94581.50;;;17.92;54.79
56330;BME280;42236;48.058;10.632;2023-04-29T14:53:03;94586.97;;;17.92;54.76
56330;BME280;42236;48.058;10.632;2023-04-29T14:55:49;94584.25;;;18.17;54.13
56330;BME280;42236;48.058;10.632;2023-04-29T14:58:42;94582.69;;;18.23;53.41
56330;BME280;42236;48.058;10.632;2023-04-29T15:01:56;94596.34;;;18.12;50.20
56330;BME280;42236;48.058;10.632;2023-04-29T15:05:05;94590.88;;;18.09;52.28
56330;BME280;42236;48.058;10.632;2023-04-29T15:07:54;94594.78;;;17.86;53.55
56330;BME280;42236;48.058;10.632;2023-04-29T15:10:47;94590.03;;;17.65;52.97
56330;BME280;42236;48.058;10.632;2023-04-29T15:13:34;94597.81;;;17.63;53.95
56330;BME280;42236;48.058;10.632;2023-04-29T15:16:33;94597.75;;;17.49;51.94
56330;BME280;42236;48.058;10.632;2023-04-29T15:19:37;94596.97;;;17.41;52.29
56330;BME280;42236;48.058;10.632;2023-04-29T15:22:57;94603.16;;;17.24;53.61
56330;BME280;42236;48.058;10.632;2023-04-29T15:25:46;94610.91;;;17.15;54.23
56330;BME280;42236;48.058;10.632;2023-04-29T15:29:24;94611.25;;;17.10;53.63
56330;BME280;42236;48.058;10.632;2023-04-29T15:32:03;94606.25;;;17.22;54.89
56330;BME280;42236;48.058;10.632;2023-04-29T15:35:10;94610.13;;;17.14;54.51
56330;BME280;42236;48.058;10.632;2023-04-29T15:38:00;94610.81;;;16.97;55.19
56330;BME280;42236;48.058;10.632;2023-04-29T15:44:32;94619.28;;;16.81;56.67
56330;BME280;42236;48.058;10.632;2023-04-29T15:47:18;94620.81;;;16.75;56.80
56330;BME280;42236;48.058;10.632;2023-04-29T15:50:16;94623.06;;;16.66;57.13
56330;BME280;42236;48.058;10.632;2023-04-29T15:56:49;94635.56;;;16.74;57.29
56330;BME280;42236;48.058;10.632;2023-04-29T15:59:35;94640.22;;;16.70;57.32
56330;BME280;42236;48.058;10.632;2023-04-29T16:02:24;94629.97;;;16.52;56.93
56330;BME280;42236;48.058;10.632;2023-04-29T16:05:09;94642.28;;;16.35;58.24
56330;BME280;42236;48.058;10.632;2023-04-29T16:07:56;94642.59;;;16.23;58.32
56330;BME280;42236;48.058;10.632;2023-04-29T16:10:41;94643.38;;;16.24;58.34
56330;BME280;42236;48.058;10.632;2023-04-29T16:13:34;94644.56;;;16.26;58.37
56330;BME280;42236;48.058;10.632;2023-04-29T16:20:03;94651.69;;;16.45;58.65
56330;BME280;42236;48.058;10.632;2023-04-29T16:22:50;94657.19;;;16.49;58.82
56330;BME280;42236;48.058;10.632;2023-04-29T16:25:41;94667.78;;;16.61;58.83
56330;BME280;42236;48.058;10.632;2023-04-29T16:28:27;94667.00;;;16.60;58.38
56330;BME280;42236;48.058;10.632;2023-04-29T16:31:21;94666.56;;;16.51;57.15
56330;BME280;42236;48.058;10.632;2023-04-29T16:34:08;94664.34;;;16.68;57.95
56330;BME280;42236;48.058;10.632;2023-04-29T16:41:10;94675.78;;;16.36;57.62
56330;BME280;42236;48.058;10.632;2023-04-29T16:43:59;94675.13;;;16.53;57.89
56330;BME280;42236;48.058;10.632;2023-04-29T16:46:45;94681.22;;;16.36;58.28
56330;BME280;42236;48.058;10.632;2023-04-29T16:49:31;94683.41;;;16.19;58.59
56330;BME280;42236;48.058;10.632;2023-04-29T16:52:16;94688.50;;;16.25;58.46
56330;BME280;42236;48.058;10.632;2023-04-29T16:55:04;94677.25;;;16.30;58.14
56330;BME280;42236;48.058;10.632;2023-04-29T16:57:50;94680.25;;;16.17;58.74